Weather Data

Pearl Creek Farm: 8878 N Farm Road 75, Walnut Grove MO 65770

<== Previous Day (Sunday 06 Jan 2008) | Next Day (Tuesday 08 Jan 2008) ==>

Summary Precipitation Data For Monday 07 January 2008

ElementValueUnits
Precipitation1.75"
Notes(none)
SourceSpringfield-Branson National Airport (SGF)

Summary Temperature Data For Monday 07 January 2008

ElementValueUnits
High Temperature68 oF
Low Temperature55 oF
Average Temperature62 oF
High Humidity93 %
Low Humidity63 %
Average Humidity77 %
SourceSpringfield-Branson National Airport (SGF)

Detail Temperature Data For Monday 07 January 2008

Date / TimeTemp (F)RH (%)Dew Pt (F)Report Date / TimeSource
2008-01-07 12:52:00 64 75 56.0 2017-12-29 19:14:24.89625 Springfield-Branson National Airport (SGF)
2008-01-07 17:52:00 64 78 57.0 2017-12-29 19:14:24.89625 Springfield-Branson National Airport (SGF)
2008-01-07 18:52:00 61 87 57.0 2017-12-29 19:14:24.89625 Springfield-Branson National Airport (SGF)
2008-01-07 19:52:00 63 81 57.0 2017-12-29 19:14:24.89625 Springfield-Branson National Airport (SGF)
2008-01-07 20:52:00 61 90 58.0 2017-12-29 19:14:24.89625 Springfield-Branson National Airport (SGF)
2008-01-07 21:52:00 60 86 56.0 2017-12-29 19:14:24.89625 Springfield-Branson National Airport (SGF)
2008-01-07 22:52:00 57 90 54.0 2017-12-29 19:14:24.89625 Springfield-Branson National Airport (SGF)
2008-01-07 23:52:00 55 93 53.0 2017-12-29 19:14:24.89625 Springfield-Branson National Airport (SGF)
2008-01-07 03:52:00 60 78 53.0 2017-12-29 19:14:24.89625 Springfield-Branson National Airport (SGF)
2008-01-07 04:52:00 62 75 54.0 2017-12-29 19:14:24.89625 Springfield-Branson National Airport (SGF)
2008-01-07 05:52:00 62 73 53.0 2017-12-29 19:14:24.89625 Springfield-Branson National Airport (SGF)
2008-01-07 06:52:00 62 75 54.0 2017-12-29 19:14:24.89625 Springfield-Branson National Airport (SGF)
2008-01-07 07:52:00 62 75 54.0 2017-12-29 19:14:24.89625 Springfield-Branson National Airport (SGF)
2008-01-07 08:52:00 63 73 54.0 2017-12-29 19:14:24.89625 Springfield-Branson National Airport (SGF)
2008-01-07 09:52:00 64 73 55.0 2017-12-29 19:14:24.89625 Springfield-Branson National Airport (SGF)
2008-01-07 10:52:00 65 70 55.0 2017-12-29 19:14:24.89625 Springfield-Branson National Airport (SGF)
2008-01-07 11:52:00 66 68 55.0 2017-12-29 19:14:24.89625 Springfield-Branson National Airport (SGF)
2008-01-07 13:52:00 68 65 56.0 2017-12-29 19:14:24.89625 Springfield-Branson National Airport (SGF)
2008-01-07 14:52:00 68 63 55.0 2017-12-29 19:14:24.89625 Springfield-Branson National Airport (SGF)
2008-01-07 15:52:00 68 63 55.0 2017-12-29 19:14:24.89625 Springfield-Branson National Airport (SGF)
2008-01-07 16:52:00 65 76 57.0 2017-12-29 19:14:24.89625 Springfield-Branson National Airport (SGF)
2008-01-07 00:52:00 58 81 52.0 2017-12-29 19:14:24.89625 Springfield-Branson National Airport (SGF)
2008-01-07 01:52:00 59 78 52.0 2017-12-29 19:14:24.89625 Springfield-Branson National Airport (SGF)
2008-01-07 02:52:00 58 81 52.0 2017-12-29 19:14:24.89625 Springfield-Branson National Airport (SGF)

A total of 24 rows are displayed.